• Join FlightAware (Why Join?)
  • Login
  • US Flag 
02:31PM EDT


 

Airport Tracker/Info


-or-


 

Live Flight TrackerFlight Track Log ✈ FLG3807 ✈ 02-Aug-2013 ✈ KEWR - KCVG

Flight Track Log - Related Links

Times and Time Zones

All times are in EDT time to prevent confusion due to time zone crossing. See the FLG3807 flight status page for this flight to view local times or setup timezone preferences in your user account.

Time Position Orientation Groundspeed Altitude Reporting Facility
EDT Latitude Longitude Course Direction KTS MPH feet Rate Location/Type
08:27PM 40.6333 -74.1833 270° West 195 224 2,700  Level New York TRACON
08:28PM 40.6167 -74.2667 255° West 214 246 5,200 2,640 Climbing New York TRACON
08:29PM 40.6333 -74.3500 285° West 257 296 8,000 2,760 Climbing New York TRACON
08:30PM 40.6667 -74.4500 294° West 274 315 11,000 2,040 Climbing New York TRACON
08:31PM 40.6667 -74.5500 270° West 302 348 12,100 1,500 Climbing New York TRACON
08:32PM 40.6833 -74.9960 270° West  Level FlightAware Approximate
08:32PM 40.6722 -74.6700 274° West 343 395 14,100  Level New York Center
08:33PM 40.6750 -74.7769 272° West 347 399 15,800 1,380 Climbing New York Center
08:34PM 40.6786 -74.9139 272° West 336 387 16,900 660 Climbing New York Center
08:35PM 40.6822 -75.0428 272° West 349 402 17,200 1,020 Climbing New York Center
08:36PM 40.6444 -75.1636 248° West 354 407 19,000 1,500 Climbing New York Center
08:37PM 40.5944 -75.2778 240° Southwest 359 413 20,300 1,320 Climbing New York Center
08:38PM 40.5419 -75.3919 239° Southwest 364 419 21,700 1,140 Climbing New York Center
08:39PM 40.4897 -75.5031 238° Southwest 364 419 22,600 900 Climbing New York Center
08:40PM 40.4392 -75.6167 240° Southwest 364 419 23,600 840 Climbing New York Center
08:41PM 40.3867 -75.7303 239° Southwest 370 426 24,400 780 Climbing New York Center
08:42PM 40.3317 -75.8433 237° Southwest 370 426 25,200 780 Climbing New York Center
08:43PM 40.2814 -75.9486 238° Southwest 378 435 26,000 720 Climbing New York Center
08:44PM 40.2261 -76.0614 237° Southwest 378 435 26,700 660 Climbing New York Center
08:45PM 40.1725 -76.1878 241° Southwest 373 429 27,400 600 Climbing New York Center
08:46PM 40.1175 -76.2947 236° Southwest 379 436 28,000 600 Climbing New York Center
08:47PM 40.0664 -76.4100 240° Southwest 379 436 28,700 660 Climbing New York Center
08:48PM 40.0125 -76.5278 239° Southwest 379 436 29,400 360 Climbing New York Center
08:50PM 39.8761 -76.8136 238° Southwest 393 452 30,000 180 Climbing Washington Center
08:51PM 39.8186 -76.9367 239° Southwest 398 458 30,000  Level Washington Center
08:52PM 39.7608 -77.0625 239° Southwest 403 464 30,000  Level Washington Center
08:53PM 39.7031 -77.1856 239° Southwest 403 464 30,000  Level Washington Center
08:54PM 39.6453 -77.3081 239° Southwest 403 464 30,000  Level Washington Center
08:55PM 39.5872 -77.4306 238° Southwest 403 464 30,000  Level Washington Center
08:56PM 39.5289 -77.5556 239° Southwest 403 464 30,000  Level Washington Center
08:57PM 39.4706 -77.6750 238° Southwest 403 464 30,000  Level Washington Center
08:58PM 39.4122 -77.7969 238° Southwest 403 464 30,000  Level Washington Center
08:59PM 39.3622 -77.9108 240° Southwest 403 464 30,000  Level Washington Center
09:00PM 39.3139 -78.0353 243° Southwest 398 458 30,000  Level Washington Center
09:01PM 39.2611 -78.1622 242° Southwest 393 452 30,000  Level Washington Center
09:02PM 39.2125 -78.2919 244° Southwest 393 452 30,000  Level Washington Center
09:03PM 39.1597 -78.4158 241° Southwest 398 458 30,000  Level Washington Center
09:04PM 39.1086 -78.5447 243° Southwest 404 465 30,000  Level Washington Center
09:05PM 39.0553 -78.6764 242° Southwest 409 471 30,000  Level Washington Center
09:06PM 39.0039 -78.8025 242° Southwest 409 471 30,000  Level Washington Center
09:07PM 38.9506 -78.9308 242° Southwest 404 465 30,000  Level Washington Center
09:08PM 38.9092 -79.0625 248° West 404 465 30,000  Level Washington Center
09:09PM 38.8967 -79.2031 264° West 393 452 30,000  Level Washington Center
09:10PM 38.8861 -79.3439 265° West 398 458 30,000  Level Washington Center
09:11PM 38.8753 -79.4847 264° West 410 472 30,000  Level Washington Center
09:12PM 38.8639 -79.6469 265° West 412 474 30,000  Level Washington Center
09:13PM 38.8506 -79.7928 263° West 412 474 30,000  Level Washington Center
09:14PM 38.8417 -79.9203 265° West 412 474 30,000  Level Washington Center
09:15PM 38.8233 -80.1108 263° West 408 470 30,000  Level Indianapolis Center
09:16PM 38.8167 -80.2542 267° West 404 465 30,000  Level Indianapolis Center
09:17PM 38.8128 -80.3978 268° West 404 465 30,000  Level Indianapolis Center
09:18PM 38.8092 -80.5422 268° West 405 466 30,000  Level Indianapolis Center
09:19PM 38.7928 -80.6831 262° West 403 464 30,000  Level Indianapolis Center
09:20PM 38.7733 -80.8236 260° West 401 461 30,000  Level Indianapolis Center
09:21PM 38.7531 -80.9631 259° West 398 458 30,000  Level Indianapolis Center
09:22PM 38.7328 -81.1022 259° West 398 458 30,000  Level Indianapolis Center
09:23PM 38.7128 -81.2419 260° West 398 458 30,000  Level Indianapolis Center
09:24PM 38.6925 -81.3817 260° West 399 459 30,000  Level Indianapolis Center
09:25PM 38.6689 -81.5428 259° West 401 461 30,000  Level Indianapolis Center
09:26PM 38.6497 -81.6756 260° West 403 464 30,000 -600 Level Indianapolis Center
09:28PM 38.6286 -81.8109 259° West  Level FlightAware Approximate
09:28PM 38.6072 -81.9592 259° West 405 466 28,200  Level Indianapolis Center
09:30PM 38.5814 -82.1292 259° West 407 468 27,000 -1,140 Descending Indianapolis Center
09:31PM 38.5589 -82.2683 258° West 404 465 26,000 -1,020 Descending Indianapolis Center
09:32PM 38.5372 -82.4111 259° West 409 471 25,000 -1,020 Descending Indianapolis Center
09:33PM 38.5153 -82.5522 259° West 400 460 24,000 -1,020 Descending Indianapolis Center
09:34PM 38.4925 -82.6906 258° West 399 459 23,000 -1,020 Descending Indianapolis Center
09:35PM 38.4711 -82.8297 259° West 400 460 22,000 -540 Descending Indianapolis Center
09:36PM 38.4819 -82.9650 276° West 389 448 22,000  Level Indianapolis Center
09:37PM 38.5011 -83.0983 280° West 383 441 22,000 -900 Level Indianapolis Center
09:38PM 38.5236 -83.2536 281° West 384 442 20,200 -1,980 Descending Indianapolis Center
09:39PM 38.5414 -83.3828 280° West 375 432 18,000 -2,100 Descending Indianapolis Center
09:40PM 38.5569 -83.5014 280° West 350 403 15,900 -2,040 Descending Indianapolis Center
09:41PM 38.5728 -83.6197 280° West 340 391 13,900 -1,860 Descending Indianapolis Center
09:42PM 38.5897 -83.7356 281° West 335 386 12,100 -1,620 Descending Indianapolis Center
09:43PM 38.6042 -83.8475 279° West 325 374 10,700 -1,080 Descending Indianapolis Center
09:44PM 38.6294 -83.9575 286° West 327 376 10,000 -360 Descending Indianapolis Center
09:45PM 38.6853 -84.0578 306° West 334 384 10,000  Level Indianapolis Center
09:46PM 38.7436 -84.1708 304° West 334 384 10,000  Level Indianapolis Center
09:47PM 38.7942 -84.2719 303° West 335 386 10,000  Level Indianapolis Center
09:48PM 38.8456 -84.3700 304° West 333 383 10,000  Level Indianapolis Center
09:49PM 38.8881 -84.4550 303° West 334 384 10,000 -420 Level Indianapolis Center
09:50PM 38.9514 -84.5383 314° West 267 307 9,200 -1,380 Descending Indianapolis Center
09:51PM 39.0264 -84.5397 359° North 268 308 7,200 -1,980 Descending Indianapolis Center
09:52PM 39.0981 -84.5381 North 262 302 5,200 -1,620 Descending Indianapolis Center
09:53PM 39.1592 -84.5394 359° North 243 280 3,900 -1,020 Descending Indianapolis Center
09:55PM 39.1500 -84.6667 265° West 165 190 2,400 -780 Descending Cincinnati TRACON
09:56PM 39.1000 -84.6667 180° South 123 142 1,700 -660 Descending Cincinnati TRACON
09:58PM 39.0488 -84.6678 195° South  Level Estimated
10:05PM 39.0488 -84.6678 195° South  Level Estimated